sensor_id;sensor_type;location;lat;lon;timestamp;temperature;humidity
39493;DHT22;25176;51.060;3.720;2022-09-03T00:01:13;22.90;78.30
39493;DHT22;25176;51.060;3.720;2022-09-03T00:03:45;23.00;78.30
39493;DHT22;25176;51.060;3.720;2022-09-03T00:08:38;22.90;78.60
39493;DHT22;25176;51.060;3.720;2022-09-03T00:14:11;22.80;78.80
39493;DHT22;25176;51.060;3.720;2022-09-03T00:16:33;22.80;78.90
39493;DHT22;25176;51.060;3.720;2022-09-03T00:19:04;22.90;78.80
39493;DHT22;25176;51.060;3.720;2022-09-03T00:21:37;22.90;79.00
39493;DHT22;25176;51.060;3.720;2022-09-03T00:24:04;22.90;78.80
39493;DHT22;25176;51.060;3.720;2022-09-03T00:26:32;22.90;78.80
39493;DHT22;25176;51.060;3.720;2022-09-03T00:29:06;22.90;78.70
39493;DHT22;25176;51.060;3.720;2022-09-03T00:31:34;22.90;78.70
39493;DHT22;25176;51.060;3.720;2022-09-03T00:34:04;22.90;78.80
39493;DHT22;25176;51.060;3.720;2022-09-03T00:36:39;22.90;78.80
39493;DHT22;25176;51.060;3.720;2022-09-03T00:39:09;22.90;79.10
39493;DHT22;25176;51.060;3.720;2022-09-03T00:41:35;22.90;79.00
39493;DHT22;25176;51.060;3.720;2022-09-03T00:46:32;22.80;79.20
39493;DHT22;25176;51.060;3.720;2022-09-03T00:51:50;22.80;79.20
39493;DHT22;25176;51.060;3.720;2022-09-03T00:54:31;22.80;79.10
39493;DHT22;25176;51.060;3.720;2022-09-03T00:57:22;22.80;79.10
39493;DHT22;25176;51.060;3.720;2022-09-03T01:00:03;22.80;78.80
39493;DHT22;25176;51.060;3.720;2022-09-03T01:05:46;22.70;79.20
39493;DHT22;25176;51.060;3.720;2022-09-03T01:08:19;22.50;79.80
39493;DHT22;25176;51.060;3.720;2022-09-03T01:16:16;22.50;80.30
39493;DHT22;25176;51.060;3.720;2022-09-03T01:29:21;22.50;80.60
39493;DHT22;25176;51.060;3.720;2022-09-03T01:39:07;22.40;80.40
39493;DHT22;25176;51.060;3.720;2022-09-03T01:46:49;22.40;80.90
39493;DHT22;25176;51.060;3.720;2022-09-03T01:51:46;22.50;80.70
39493;DHT22;25176;51.060;3.720;2022-09-03T02:02:25;22.50;80.90
39493;DHT22;25176;51.060;3.720;2022-09-03T02:07:33;22.50;81.20
39493;DHT22;25176;51.060;3.720;2022-09-03T02:09:59;22.50;80.80
39493;DHT22;25176;51.060;3.720;2022-09-03T02:12:25;22.40;81.10
39493;DHT22;25176;51.060;3.720;2022-09-03T02:14:53;22.30;81.30
39493;DHT22;25176;51.060;3.720;2022-09-03T02:17:19;22.20;81.60
39493;DHT22;25176;51.060;3.720;2022-09-03T02:19:45;22.30;81.60
39493;DHT22;25176;51.060;3.720;2022-09-03T02:22:10;22.20;81.40
39493;DHT22;25176;51.060;3.720;2022-09-03T02:24:36;22.00;82.30
39493;DHT22;25176;51.060;3.720;2022-09-03T02:27:02;22.00;82.40
39493;DHT22;25176;51.060;3.720;2022-09-03T02:29:28;22.00;82.60
39493;DHT22;25176;51.060;3.720;2022-09-03T02:31:53;22.10;82.10
39493;DHT22;25176;51.060;3.720;2022-09-03T02:34:19;22.10;82.10
39493;DHT22;25176;51.060;3.720;2022-09-03T02:36:45;22.20;81.90
39493;DHT22;25176;51.060;3.720;2022-09-03T02:39:14;22.10;82.00
39493;DHT22;25176;51.060;3.720;2022-09-03T02:41:40;22.10;82.30
39493;DHT22;25176;51.060;3.720;2022-09-03T02:44:13;22.10;82.10
39493;DHT22;25176;51.060;3.720;2022-09-03T02:46:44;22.20;82.00
39493;DHT22;25176;51.060;3.720;2022-09-03T02:49:11;22.20;82.40
39493;DHT22;25176;51.060;3.720;2022-09-03T02:51:37;22.20;81.70
39493;DHT22;25176;51.060;3.720;2022-09-03T02:54:03;22.10;81.90
39493;DHT22;25176;51.060;3.720;2022-09-03T02:56:29;22.20;82.10
39493;DHT22;25176;51.060;3.720;2022-09-03T02:58:54;22.10;82.30
39493;DHT22;25176;51.060;3.720;2022-09-03T03:01:20;22.20;82.10
39493;DHT22;25176;51.060;3.720;2022-09-03T03:03:46;22.20;82.00
39493;DHT22;25176;51.060;3.720;2022-09-03T03:06:11;22.20;81.90
39493;DHT22;25176;51.060;3.720;2022-09-03T03:08:38;22.20;81.70
39493;DHT22;25176;51.060;3.720;2022-09-03T03:11:03;22.30;81.50
39493;DHT22;25176;51.060;3.720;2022-09-03T03:13:30;22.20;81.70
39493;DHT22;25176;51.060;3.720;2022-09-03T03:15:56;22.20;81.90
39493;DHT22;25176;51.060;3.720;2022-09-03T03:18:22;22.20;82.10
39493;DHT22;25176;51.060;3.720;2022-09-03T03:20:48;22.20;82.20
39493;DHT22;25176;51.060;3.720;2022-09-03T03:23:13;22.20;82.10
39493;DHT22;25176;51.060;3.720;2022-09-03T03:25:39;22.20;82.00
39493;DHT22;25176;51.060;3.720;2022-09-03T03:28:05;22.20;82.00
39493;DHT22;25176;51.060;3.720;2022-09-03T03:30:31;22.10;82.30
39493;DHT22;25176;51.060;3.720;2022-09-03T03:32:56;22.10;82.50
39493;DHT22;25176;51.060;3.720;2022-09-03T03:35:22;22.10;82.40
39493;DHT22;25176;51.060;3.720;2022-09-03T03:37:48;22.10;82.00
39493;DHT22;25176;51.060;3.720;2022-09-03T03:40:13;22.10;82.10
39493;DHT22;25176;51.060;3.720;2022-09-03T03:42:39;22.00;82.30
39493;DHT22;25176;51.060;3.720;2022-09-03T03:45:05;22.10;82.10
39493;DHT22;25176;51.060;3.720;2022-09-03T03:47:31;22.20;81.60
39493;DHT22;25176;51.060;3.720;2022-09-03T03:49:57;22.00;81.60
39493;DHT22;25176;51.060;3.720;2022-09-03T03:52:23;21.90;81.90
39493;DHT22;25176;51.060;3.720;2022-09-03T03:54:49;21.90;81.80
39493;DHT22;25176;51.060;3.720;2022-09-03T03:57:15;22.00;81.90
39493;DHT22;25176;51.060;3.720;2022-09-03T03:59:40;21.80;82.20
39493;DHT22;25176;51.060;3.720;2022-09-03T04:02:06;21.70;82.50
39493;DHT22;25176;51.060;3.720;2022-09-03T04:04:31;21.30;84.60
39493;DHT22;25176;51.060;3.720;2022-09-03T04:06:57;21.20;85.10
39493;DHT22;25176;51.060;3.720;2022-09-03T04:09:22;21.10;85.50
39493;DHT22;25176;51.060;3.720;2022-09-03T04:11:48;20.80;86.70
39493;DHT22;25176;51.060;3.720;2022-09-03T04:14:15;20.70;87.90
39493;DHT22;25176;51.060;3.720;2022-09-03T04:16:42;20.60;88.40
39493;DHT22;25176;51.060;3.720;2022-09-03T04:19:11;20.50;89.90
39493;DHT22;25176;51.060;3.720;2022-09-03T04:21:36;20.60;90.10
39493;DHT22;25176;51.060;3.720;2022-09-03T04:24:02;20.60;90.40
39493;DHT22;25176;51.060;3.720;2022-09-03T04:26:29;20.80;90.70
39493;DHT22;25176;51.060;3.720;2022-09-03T04:28:56;20.80;90.80
39493;DHT22;25176;51.060;3.720;2022-09-03T04:31:21;21.00;91.20
39493;DHT22;25176;51.060;3.720;2022-09-03T04:33:47;21.10;91.30
39493;DHT22;25176;51.060;3.720;2022-09-03T04:38:39;21.10;91.60
39493;DHT22;25176;51.060;3.720;2022-09-03T04:41:05;21.20;92.00
39493;DHT22;25176;51.060;3.720;2022-09-03T04:43:31;21.30;91.50
39493;DHT22;25176;51.060;3.720;2022-09-03T04:45:57;21.20;91.50
39493;DHT22;25176;51.060;3.720;2022-09-03T04:48:23;21.10;91.90
39493;DHT22;25176;51.060;3.720;2022-09-03T04:50:49;21.00;92.40
39493;DHT22;25176;51.060;3.720;2022-09-03T04:53:14;21.00;92.40
39493;DHT22;25176;51.060;3.720;2022-09-03T04:55:40;20.60;93.30
39493;DHT22;25176;51.060;3.720;2022-09-03T04:58:05;20.50;93.90
39493;DHT22;25176;51.060;3.720;2022-09-03T05:00:34;20.60;94.20
39493;DHT22;25176;51.060;3.720;2022-09-03T05:03:00;20.50;94.20
39493;DHT22;25176;51.060;3.720;2022-09-03T05:05:25;20.40;94.50
39493;DHT22;25176;51.060;3.720;2022-09-03T05:07:51;20.30;95.20
39493;DHT22;25176;51.060;3.720;2022-09-03T05:10:17;20.50;95.40
39493;DHT22;25176;51.060;3.720;2022-09-03T05:12:46;20.60;95.20
39493;DHT22;25176;51.060;3.720;2022-09-03T05:15:12;20.60;95.10
39493;DHT22;25176;51.060;3.720;2022-09-03T05:17:38;20.50;95.60
39493;DHT22;25176;51.060;3.720;2022-09-03T05:20:04;20.60;95.50
39493;DHT22;25176;51.060;3.720;2022-09-03T05:22:32;20.60;95.30
39493;DHT22;25176;51.060;3.720;2022-09-03T05:24:58;20.60;95.90
39493;DHT22;25176;51.060;3.720;2022-09-03T05:27:23;20.60;95.60
39493;DHT22;25176;51.060;3.720;2022-09-03T05:29:49;20.80;95.50
39493;DHT22;25176;51.060;3.720;2022-09-03T05:32:14;20.70;95.60
39493;DHT22;25176;51.060;3.720;2022-09-03T05:34:42;20.60;95.90
39493;DHT22;25176;51.060;3.720;2022-09-03T05:37:07;20.50;96.30
39493;DHT22;25176;51.060;3.720;2022-09-03T05:39:33;20.60;96.50
39493;DHT22;25176;51.060;3.720;2022-09-03T05:41:58;20.60;96.10
39493;DHT22;25176;51.060;3.720;2022-09-03T05:44:24;20.70;95.90
39493;DHT22;25176;51.060;3.720;2022-09-03T05:46:49;20.70;96.10
39493;DHT22;25176;51.060;3.720;2022-09-03T05:49:15;20.60;96.40
39493;DHT22;25176;51.060;3.720;2022-09-03T05:51:41;20.70;96.50
39493;DHT22;25176;51.060;3.720;2022-09-03T05:54:08;20.90;96.40
39493;DHT22;25176;51.060;3.720;2022-09-03T05:56:34;21.10;95.90
39493;DHT22;25176;51.060;3.720;2022-09-03T05:59:01;21.10;95.30
39493;DHT22;25176;51.060;3.720;2022-09-03T06:01:30;21.10;95.80
39493;DHT22;25176;51.060;3.720;2022-09-03T06:03:57;21.10;95.90
39493;DHT22;25176;51.060;3.720;2022-09-03T06:06:23;21.10;95.90
39493;DHT22;25176;51.060;3.720;2022-09-03T06:08:53;21.20;95.90
39493;DHT22;25176;51.060;3.720;2022-09-03T06:11:19;21.30;95.40
39493;DHT22;25176;51.060;3.720;2022-09-03T06:13:45;21.40;95.30
39493;DHT22;25176;51.060;3.720;2022-09-03T06:16:11;21.40;95.00
39493;DHT22;25176;51.060;3.720;2022-09-03T06:18:37;21.50;94.90
39493;DHT22;25176;51.060;3.720;2022-09-03T06:21:03;21.40;94.80
39493;DHT22;25176;51.060;3.720;2022-09-03T06:23:29;21.50;94.70
39493;DHT22;25176;51.060;3.720;2022-09-03T06:26:29;21.50;94.70
39493;DHT22;25176;51.060;3.720;2022-09-03T06:28:47;21.70;94.50
39493;DHT22;25176;51.060;3.720;2022-09-03T06:31:18;21.90;93.80
39493;DHT22;25176;51.060;3.720;2022-09-03T06:33:44;22.00;93.00
39493;DHT22;25176;51.060;3.720;2022-09-03T06:36:11;22.00;92.50
39493;DHT22;25176;51.060;3.720;2022-09-03T06:38:40;21.70;92.80
39493;DHT22;25176;51.060;3.720;2022-09-03T06:41:10;21.70;93.80
39493;DHT22;25176;51.060;3.720;2022-09-03T06:43:37;21.70;94.00
39493;DHT22;25176;51.060;3.720;2022-09-03T06:46:13;21.60;94.30
39493;DHT22;25176;51.060;3.720;2022-09-03T06:48:39;21.70;94.00
39493;DHT22;25176;51.060;3.720;2022-09-03T06:51:06;21.30;94.60
39493;DHT22;25176;51.060;3.720;2022-09-03T06:53:42;21.20;95.20
39493;DHT22;25176;51.060;3.720;2022-09-03T06:56:09;21.20;95.40
39493;DHT22;25176;51.060;3.720;2022-09-03T06:58:36;21.30;95.70
39493;DHT22;25176;51.060;3.720;2022-09-03T07:01:06;21.40;95.40
39493;DHT22;25176;51.060;3.720;2022-09-03T07:03:32;21.50;95.30
39493;DHT22;25176;51.060;3.720;2022-09-03T07:06:05;21.60;95.20
39493;DHT22;25176;51.060;3.720;2022-09-03T07:08:31;21.60;95.00
39493;DHT22;25176;51.060;3.720;2022-09-03T07:11:01;21.70;95.00
39493;DHT22;25176;51.060;3.720;2022-09-03T07:13:31;21.90;94.70
39493;DHT22;25176;51.060;3.720;2022-09-03T07:16:01;22.20;94.30
39493;DHT22;25176;51.060;3.720;2022-09-03T07:18:27;22.30;93.70
39493;DHT22;25176;51.060;3.720;2022-09-03T07:20:56;22.20;93.20
39493;DHT22;25176;51.060;3.720;2022-09-03T07:23:22;22.00;93.50
39493;DHT22;25176;51.060;3.720;2022-09-03T07:25:54;21.70;94.10
39493;DHT22;25176;51.060;3.720;2022-09-03T07:28:19;21.90;94.30
39493;DHT22;25176;51.060;3.720;2022-09-03T07:30:45;22.10;93.80
39493;DHT22;25176;51.060;3.720;2022-09-03T07:33:11;22.10;93.60
39493;DHT22;25176;51.060;3.720;2022-09-03T07:35:36;22.30;93.40
39493;DHT22;25176;51.060;3.720;2022-09-03T07:38:02;22.20;92.80
39493;DHT22;25176;51.060;3.720;2022-09-03T07:40:27;22.30;93.20
39493;DHT22;25176;51.060;3.720;2022-09-03T07:42:56;22.50;92.90
39493;DHT22;25176;51.060;3.720;2022-09-03T07:45:28;22.50;92.50
39493;DHT22;25176;51.060;3.720;2022-09-03T07:47:55;22.40;93.00
39493;DHT22;25176;51.060;3.720;2022-09-03T07:50:20;22.40;92.90
39493;DHT22;25176;51.060;3.720;2022-09-03T07:52:46;22.30;92.90
39493;DHT22;25176;51.060;3.720;2022-09-03T07:55:12;22.50;93.00
39493;DHT22;25176;51.060;3.720;2022-09-03T07:57:38;22.50;92.80
39493;DHT22;25176;51.060;3.720;2022-09-03T08:00:04;22.50;93.10
39493;DHT22;25176;51.060;3.720;2022-09-03T08:02:32;22.80;92.80
39493;DHT22;25176;51.060;3.720;2022-09-03T08:04:58;23.00;92.40
39493;DHT22;25176;51.060;3.720;2022-09-03T08:07:25;23.40;91.90
39493;DHT22;25176;51.060;3.720;2022-09-03T08:09:50;23.20;91.70
39493;DHT22;25176;51.060;3.720;2022-09-03T08:12:16;23.10;91.50
39493;DHT22;25176;51.060;3.720;2022-09-03T08:14:41;23.30;91.90
39493;DHT22;25176;51.060;3.720;2022-09-03T08:17:07;23.20;91.20
39493;DHT22;25176;51.060;3.720;2022-09-03T08:19:32;23.20;91.60
39493;DHT22;25176;51.060;3.720;2022-09-03T08:21:59;23.20;91.40
39493;DHT22;25176;51.060;3.720;2022-09-03T08:24:24;23.30;91.40
39493;DHT22;25176;51.060;3.720;2022-09-03T08:26:50;23.10;91.10
39493;DHT22;25176;51.060;3.720;2022-09-03T08:29:16;23.50;91.50
39493;DHT22;25176;51.060;3.720;2022-09-03T08:31:41;23.50;90.70
39493;DHT22;25176;51.060;3.720;2022-09-03T08:34:08;22.70;91.40
39493;DHT22;25176;51.060;3.720;2022-09-03T08:36:36;22.40;92.40
39493;DHT22;25176;51.060;3.720;2022-09-03T08:39:03;22.60;92.50
39493;DHT22;25176;51.060;3.720;2022-09-03T08:49:21;26.30;83.40
39493;DHT22;25176;51.060;3.720;2022-09-03T08:51:48;27.10;80.90
39493;DHT22;25176;51.060;3.720;2022-09-03T08:54:14;26.70;80.70
39493;DHT22;25176;51.060;3.720;2022-09-03T08:56:40;27.00;79.60
39493;DHT22;25176;51.060;3.720;2022-09-03T08:59:07;27.00;79.80
39493;DHT22;25176;51.060;3.720;2022-09-03T09:06:49;25.60;83.10
39493;DHT22;25176;51.060;3.720;2022-09-03T09:17:36;26.80;79.10
39493;DHT22;25176;51.060;3.720;2022-09-03T09:22:50;26.60;78.80
39493;DHT22;25176;51.060;3.720;2022-09-03T09:25:20;26.60;78.70
39493;DHT22;25176;51.060;3.720;2022-09-03T09:27:47;26.40;78.30
39493;DHT22;25176;51.060;3.720;2022-09-03T09:30:16;25.80;80.50
39493;DHT22;25176;51.060;3.720;2022-09-03T09:32:42;26.20;79.90
39493;DHT22;25176;51.060;3.720;2022-09-03T09:35:08;25.90;80.20
39493;DHT22;25176;51.060;3.720;2022-09-03T09:37:45;25.70;81.60
39493;DHT22;25176;51.060;3.720;2022-09-03T09:40:10;26.00;82.60
39493;DHT22;25176;51.060;3.720;2022-09-03T09:42:47;26.50;79.90
39493;DHT22;25176;51.060;3.720;2022-09-03T09:45:12;27.70;78.10
39493;DHT22;25176;51.060;3.720;2022-09-03T09:47:38;29.30;75.70
39493;DHT22;25176;51.060;3.720;2022-09-03T09:50:13;30.20;70.80
39493;DHT22;25176;51.060;3.720;2022-09-03T09:52:40;30.00;70.50
39493;DHT22;25176;51.060;3.720;2022-09-03T09:55:06;29.80;70.50
39493;DHT22;25176;51.060;3.720;2022-09-03T09:57:32;29.40;70.90
39493;DHT22;25176;51.060;3.720;2022-09-03T10:00:09;29.00;71.70
39493;DHT22;25176;51.060;3.720;2022-09-03T10:02:37;29.10;71.30
39493;DHT22;25176;51.060;3.720;2022-09-03T10:05:12;29.00;71.40
39493;DHT22;25176;51.060;3.720;2022-09-03T10:07:39;29.00;71.40
39493;DHT22;25176;51.060;3.720;2022-09-03T10:10:06;29.10;71.20
39493;DHT22;25176;51.060;3.720;2022-09-03T10:12:37;29.60;70.50
39493;DHT22;25176;51.060;3.720;2022-09-03T10:15:11;29.70;69.50
39493;DHT22;25176;51.060;3.720;2022-09-03T10:20:14;29.70;69.40
39493;DHT22;25176;51.060;3.720;2022-09-03T10:25:28;28.10;73.80
39493;DHT22;25176;51.060;3.720;2022-09-03T10:27:56;29.10;72.10
39493;DHT22;25176;51.060;3.720;2022-09-03T10:30:25;29.50;70.60
39493;DHT22;25176;51.060;3.720;2022-09-03T10:33:00;30.10;69.30
39493;DHT22;25176;51.060;3.720;2022-09-03T10:35:30;29.70;69.30
39493;DHT22;25176;51.060;3.720;2022-09-03T10:43:06;29.10;71.80
39493;DHT22;25176;51.060;3.720;2022-09-03T10:45:38;29.90;69.90
39493;DHT22;25176;51.060;3.720;2022-09-03T10:50:43;31.40;66.50
39493;DHT22;25176;51.060;3.720;2022-09-03T10:53:26;31.90;63.90
39493;DHT22;25176;51.060;3.720;2022-09-03T11:00:59;32.30;61.80
39493;DHT22;25176;51.060;3.720;2022-09-03T11:03:41;31.70;60.00
39493;DHT22;25176;51.060;3.720;2022-09-03T11:06:14;31.40;60.40
39493;DHT22;25176;51.060;3.720;2022-09-03T11:08:42;30.30;62.00
39493;DHT22;25176;51.060;3.720;2022-09-03T11:11:22;30.10;63.20
39493;DHT22;25176;51.060;3.720;2022-09-03T11:14:08;30.40;62.70
39493;DHT22;25176;51.060;3.720;2022-09-03T11:16:39;30.70;62.40
39493;DHT22;25176;51.060;3.720;2022-09-03T11:19:07;30.80;61.80
39493;DHT22;25176;51.060;3.720;2022-09-03T11:21:36;30.90;61.70
39493;DHT22;25176;51.060;3.720;2022-09-03T11:24:12;31.30;61.50
39493;DHT22;25176;51.060;3.720;2022-09-03T11:26:38;31.40;61.10
39493;DHT22;25176;51.060;3.720;2022-09-03T11:32:03;31.60;60.60
39493;DHT22;25176;51.060;3.720;2022-09-03T11:34:43;31.80;60.20
39493;DHT22;25176;51.060;3.720;2022-09-03T11:37:29;31.90;60.00
39493;DHT22;25176;51.060;3.720;2022-09-03T11:44:49;31.40;60.10
39493;DHT22;25176;51.060;3.720;2022-09-03T11:47:37;31.60;60.20
39493;DHT22;25176;51.060;3.720;2022-09-03T11:50:34;31.50;60.50
39493;DHT22;25176;51.060;3.720;2022-09-03T11:52:54;31.20;60.00
39493;DHT22;25176;51.060;3.720;2022-09-03T11:55:31;29.00;63.50
39493;DHT22;25176;51.060;3.720;2022-09-03T11:57:58;29.30;63.90
39493;DHT22;25176;51.060;3.720;2022-09-03T12:00:34;29.50;63.70
39493;DHT22;25176;51.060;3.720;2022-09-03T12:03:02;29.70;63.70
39493;DHT22;25176;51.060;3.720;2022-09-03T12:15:59;29.90;62.40
39493;DHT22;25176;51.060;3.720;2022-09-03T12:18:30;29.70;62.90
39493;DHT22;25176;51.060;3.720;2022-09-03T12:23:46;29.60;63.30
39493;DHT22;25176;51.060;3.720;2022-09-03T12:26:11;29.40;63.40
39493;DHT22;25176;51.060;3.720;2022-09-03T12:28:40;28.90;64.30
39493;DHT22;25176;51.060;3.720;2022-09-03T12:31:16;28.20;66.00
39493;DHT22;25176;51.060;3.720;2022-09-03T12:33:52;28.10;66.30
39493;DHT22;25176;51.060;3.720;2022-09-03T12:36:22;28.30;66.20
39493;DHT22;25176;51.060;3.720;2022-09-03T12:38:48;28.50;65.50
39493;DHT22;25176;51.060;3.720;2022-09-03T12:41:25;28.60;65.40
39493;DHT22;25176;51.060;3.720;2022-09-03T12:43:52;28.70;65.60
39493;DHT22;25176;51.060;3.720;2022-09-03T12:46:18;28.70;65.40
39493;DHT22;25176;51.060;3.720;2022-09-03T12:51:23;28.80;65.70
39493;DHT22;25176;51.060;3.720;2022-09-03T12:53:48;29.10;65.70
39493;DHT22;25176;51.060;3.720;2022-09-03T12:56:17;29.30;65.10
39493;DHT22;25176;51.060;3.720;2022-09-03T12:58:57;29.40;65.00
39493;DHT22;25176;51.060;3.720;2022-09-03T13:01:31;29.40;65.00
39493;DHT22;25176;51.060;3.720;2022-09-03T13:09:18;28.80;65.00
39493;DHT22;25176;51.060;3.720;2022-09-03T13:11:45;28.80;64.20
39493;DHT22;25176;51.060;3.720;2022-09-03T13:14:11;28.50;65.10
39493;DHT22;25176;51.060;3.720;2022-09-03T13:21:33;28.60;65.40
39493;DHT22;25176;51.060;3.720;2022-09-03T13:27:01;29.10;64.30
39493;DHT22;25176;51.060;3.720;2022-09-03T13:29:36;29.20;63.10
39493;DHT22;25176;51.060;3.720;2022-09-03T13:34:47;28.60;64.20
39493;DHT22;25176;51.060;3.720;2022-09-03T13:37:24;28.40;64.30
39493;DHT22;25176;51.060;3.720;2022-09-03T13:39:57;28.10;64.30
39493;DHT22;25176;51.060;3.720;2022-09-03T13:42:38;28.10;65.10
39493;DHT22;25176;51.060;3.720;2022-09-03T13:45:12;28.10;65.80
39493;DHT22;25176;51.060;3.720;2022-09-03T13:47:45;28.30;65.70
39493;DHT22;25176;51.060;3.720;2022-09-03T13:50:36;28.10;65.60
39493;DHT22;25176;51.060;3.720;2022-09-03T13:55:47;28.50;65.00
39493;DHT22;25176;51.060;3.720;2022-09-03T14:01:14;29.10;64.30
39493;DHT22;25176;51.060;3.720;2022-09-03T14:03:48;29.10;64.10
39493;DHT22;25176;51.060;3.720;2022-09-03T14:09:10;29.10;64.10
39493;DHT22;25176;51.060;3.720;2022-09-03T14:11:59;29.30;63.60
39493;DHT22;25176;51.060;3.720;2022-09-03T14:17:09;28.80;64.40
39493;DHT22;25176;51.060;3.720;2022-09-03T14:24:37;28.60;64.50
39493;DHT22;25176;51.060;3.720;2022-09-03T14:27:05;28.60;64.70
39493;DHT22;25176;51.060;3.720;2022-09-03T14:29:33;28.80;64.60
39493;DHT22;25176;51.060;3.720;2022-09-03T14:32:18;28.80;64.30
39493;DHT22;25176;51.060;3.720;2022-09-03T14:53:19;27.60;65.10
39493;DHT22;25176;51.060;3.720;2022-09-03T14:58:16;27.60;64.40
39493;DHT22;25176;51.060;3.720;2022-09-03T15:00:55;27.80;64.20
39493;DHT22;25176;51.060;3.720;2022-09-03T15:06:05;28.10;62.90
39493;DHT22;25176;51.060;3.720;2022-09-03T15:08:35;28.40;62.10
39493;DHT22;25176;51.060;3.720;2022-09-03T15:11:03;28.40;61.80
39493;DHT22;25176;51.060;3.720;2022-09-03T15:13:35;28.40;62.00
39493;DHT22;25176;51.060;3.720;2022-09-03T15:18:55;28.50;62.30
39493;DHT22;25176;51.060;3.720;2022-09-03T15:37:01;28.90;63.40
39493;DHT22;25176;51.060;3.720;2022-09-03T15:39:34;28.90;63.10
39493;DHT22;25176;51.060;3.720;2022-09-03T15:42:03;29.00;62.80
39493;DHT22;25176;51.060;3.720;2022-09-03T15:44:34;28.90;62.90
39493;DHT22;25176;51.060;3.720;2022-09-03T15:47:03;28.90;63.10
39493;DHT22;25176;51.060;3.720;2022-09-03T15:57:27;28.40;63.60
39493;DHT22;25176;51.060;3.720;2022-09-03T15:59:58;28.40;63.70
39493;DHT22;25176;51.060;3.720;2022-09-03T16:02:33;28.40;63.80
39493;DHT22;25176;51.060;3.720;2022-09-03T16:05:07;28.30;63.70
39493;DHT22;25176;51.060;3.720;2022-09-03T16:07:40;28.10;64.20
39493;DHT22;25176;51.060;3.720;2022-09-03T16:10:19;28.00;64.50
39493;DHT22;25176;51.060;3.720;2022-09-03T16:15:37;27.60;65.50
39493;DHT22;25176;51.060;3.720;2022-09-03T16:18:21;27.70;65.80
39493;DHT22;25176;51.060;3.720;2022-09-03T16:23:30;27.80;65.60
39493;DHT22;25176;51.060;3.720;2022-09-03T16:26:02;27.90;65.30
39493;DHT22;25176;51.060;3.720;2022-09-03T16:33:57;27.60;67.00
39493;DHT22;25176;51.060;3.720;2022-09-03T16:36:30;27.50;67.70
39493;DHT22;25176;51.060;3.720;2022-09-03T16:46:52;27.70;67.50
39493;DHT22;25176;51.060;3.720;2022-09-03T16:49:29;27.50;67.70
39493;DHT22;25176;51.060;3.720;2022-09-03T16:55:07;27.40;68.00
39493;DHT22;25176;51.060;3.720;2022-09-03T17:00:04;27.30;68.10
39493;DHT22;25176;51.060;3.720;2022-09-03T17:02:56;27.20;68.40
39493;DHT22;25176;51.060;3.720;2022-09-03T17:05:35;27.30;68.40
39493;DHT22;25176;51.060;3.720;2022-09-03T17:08:24;27.10;68.30
39493;DHT22;25176;51.060;3.720;2022-09-03T17:16:11;27.10;68.00
39493;DHT22;25176;51.060;3.720;2022-09-03T17:26:20;27.00;68.20
39493;DHT22;25176;51.060;3.720;2022-09-03T17:34:04;26.90;69.30
39493;DHT22;25176;51.060;3.720;2022-09-03T17:36:34;26.80;69.60
39493;DHT22;25176;51.060;3.720;2022-09-03T17:41:46;26.70;69.90
39493;DHT22;25176;51.060;3.720;2022-09-03T17:49:26;26.70;70.40
39493;DHT22;25176;51.060;3.720;2022-09-03T17:51:58;26.60;70.20
39493;DHT22;25176;51.060;3.720;2022-09-03T17:54:34;26.60;70.50
39493;DHT22;25176;51.060;3.720;2022-09-03T18:05:23;26.60;69.90
39493;DHT22;25176;51.060;3.720;2022-09-03T18:10:22;26.50;69.80
39493;DHT22;25176;51.060;3.720;2022-09-03T18:12:53;26.40;70.10
39493;DHT22;25176;51.060;3.720;2022-09-03T18:15:24;26.40;70.30
39493;DHT22;25176;51.060;3.720;2022-09-03T18:17:53;26.30;70.20
39493;DHT22;25176;51.060;3.720;2022-09-03T18:20:22;26.30;70.60
39493;DHT22;25176;51.060;3.720;2022-09-03T18:25:58;26.20;70.70
39493;DHT22;25176;51.060;3.720;2022-09-03T18:28:46;26.20;71.00
39493;DHT22;25176;51.060;3.720;2022-09-03T18:31:31;26.10;70.80
39493;DHT22;25176;51.060;3.720;2022-09-03T18:34:17;26.20;70.80
39493;DHT22;25176;51.060;3.720;2022-09-03T18:37:03;26.10;70.80
39493;DHT22;25176;51.060;3.720;2022-09-03T18:39:48;26.10;70.90
39493;DHT22;25176;51.060;3.720;2022-09-03T18:42:36;26.10;71.20
39493;DHT22;25176;51.060;3.720;2022-09-03T18:45:31;26.10;70.90
39493;DHT22;25176;51.060;3.720;2022-09-03T18:51:11;26.00;71.10
39493;DHT22;25176;51.060;3.720;2022-09-03T18:57:21;25.90;71.40
39493;DHT22;25176;51.060;3.720;2022-09-03T19:00:08;25.90;71.60
39493;DHT22;25176;51.060;3.720;2022-09-03T19:08:30;25.80;71.70
39493;DHT22;25176;51.060;3.720;2022-09-03T19:11:28;25.80;71.70
39493;DHT22;25176;51.060;3.720;2022-09-03T19:14:33;25.80;71.50
39493;DHT22;25176;51.060;3.720;2022-09-03T19:20:17;25.70;71.20
39493;DHT22;25176;51.060;3.720;2022-09-03T19:23:04;25.70;71.20
39493;DHT22;25176;51.060;3.720;2022-09-03T19:25:49;25.70;71.50
39493;DHT22;25176;51.060;3.720;2022-09-03T19:28:36;25.60;71.40
39493;DHT22;25176;51.060;3.720;2022-09-03T19:46:17;25.00;78.10
39493;DHT22;25176;51.060;3.720;2022-09-03T19:49:05;24.80;78.40
39493;DHT22;25176;51.060;3.720;2022-09-03T19:51:54;24.70;79.20
39493;DHT22;25176;51.060;3.720;2022-09-03T19:54:40;24.70;79.00
39493;DHT22;25176;51.060;3.720;2022-09-03T19:57:24;24.80;78.10
39493;DHT22;25176;51.060;3.720;2022-09-03T20:00:11;24.80;76.70
39493;DHT22;25176;51.060;3.720;2022-09-03T20:02:55;24.80;76.10
39493;DHT22;25176;51.060;3.720;2022-09-03T20:05:40;24.90;76.00
39493;DHT22;25176;51.060;3.720;2022-09-03T20:08:26;24.90;75.80
39493;DHT22;25176;51.060;3.720;2022-09-03T20:11:14;25.00;75.70
39493;DHT22;25176;51.060;3.720;2022-09-03T20:13:41;25.00;75.70
39493;DHT22;25176;51.060;3.720;2022-09-03T20:17:11;25.00;76.10
39493;DHT22;25176;51.060;3.720;2022-09-03T20:19:21;25.00;76.40
39493;DHT22;25176;51.060;3.720;2022-09-03T20:24:20;24.90;76.70
39493;DHT22;25176;51.060;3.720;2022-09-03T20:29:25;24.90;77.30
39493;DHT22;25176;51.060;3.720;2022-09-03T20:31:58;24.90;77.00
39493;DHT22;25176;51.060;3.720;2022-09-03T20:37:01;24.80;77.20
39493;DHT22;25176;51.060;3.720;2022-09-03T20:42:13;24.80;77.40
39493;DHT22;25176;51.060;3.720;2022-09-03T20:44:49;24.70;77.70
39493;DHT22;25176;51.060;3.720;2022-09-03T20:52:35;24.60;78.30
39493;DHT22;25176;51.060;3.720;2022-09-03T20:55:10;24.50;78.70
39493;DHT22;25176;51.060;3.720;2022-09-03T21:00:21;24.50;79.00
39493;DHT22;25176;51.060;3.720;2022-09-03T21:05:40;24.50;79.30
39493;DHT22;25176;51.060;3.720;2022-09-03T21:11:47;24.40;79.70
39493;DHT22;25176;51.060;3.720;2022-09-03T21:16:16;24.30;80.30
39493;DHT22;25176;51.060;3.720;2022-09-03T21:19:00;24.10;81.30